Time;durP1;ratioP1;P1;durP2;ratioP2;P2;SDS_P1;SDS_P2;PMS_P1;PMS_P2;Temp;Humidity;BMP_temperature;BMP_pressure;BME280_temperature;BME280_humidity;BME280_pressure;Samples;Min_cycle;Max_cycle;Signal;HPM_P1;HPM_P2
2023/07/28 00:01:36;;;;;;;5.40;3.25;;;17.50;99.90;;;;;;5115761;28;20032;-77
2023/07/28 00:04:06;;;;;;;12.65;3.13;;;17.50;99.90;;;;;;5115672;28;20374;-76
2023/07/28 00:06:33;;;;;;;10.05;3.53;;;17.30;99.90;;;;;;5115557;28;20034;-75
2023/07/28 00:08:58;;;;;;;9.38;4.18;;;17.30;99.90;;;;;;5084235;28;20038;-74
2023/07/28 00:11:24;;;;;;;7.07;3.28;;;17.20;99.90;;;;;;5115412;28;20028;-76
2023/07/28 00:13:50;;;;;;;6.90;3.47;;;17.20;99.90;;;;;;5115669;28;20436;-76
2023/07/28 00:16:16;;;;;;;7.10;3.42;;;17.20;99.90;;;;;;5115393;28;20024;-75
2023/07/28 00:18:42;;;;;;;12.57;4.00;;;17.20;99.90;;;;;;5115370;28;20102;-76
2023/07/28 00:21:07;;;;;;;9.30;4.15;;;17.20;99.90;;;;;;5115419;28;20100;-75
2023/07/28 00:23:33;;;;;;;8.85;3.58;;;17.10;99.90;;;;;;5114992;28;20020;-76
2023/07/28 00:25:59;;;;;;;7.32;3.92;;;17.00;99.90;;;;;;5115637;28;20051;-74
2023/07/28 00:28:25;;;;;;;8.98;3.97;;;17.00;99.90;;;;;;5115071;28;20049;-76
2023/07/28 00:30:52;;;;;;;7.75;3.35;;;17.00;99.90;;;;;;5115279;28;20027;-76
2023/07/28 00:33:18;;;;;;;9.30;3.60;;;17.00;99.90;;;;;;5115161;28;20363;-75
2023/07/28 00:35:44;;;;;;;9.38;4.10;;;16.90;99.90;;;;;;5115164;28;20057;-75
2023/07/28 00:38:10;;;;;;;6.35;3.75;;;16.90;99.90;;;;;;5096104;28;20413;-76
2023/07/28 00:40:36;;;;;;;7.13;3.72;;;16.70;99.90;;;;;;5095980;28;20046;-77
2023/07/28 00:43:02;;;;;;;10.73;4.20;;;16.40;99.90;;;;;;5096622;28;20030;-77
2023/07/28 00:45:29;;;;;;;6.38;3.60;;;16.20;99.90;;;;;;5115369;28;20375;-77
2023/07/28 00:47:57;;;;;;;6.38;3.50;;;16.10;99.90;;;;;;5096971;28;20027;-75
2023/07/28 00:50:24;;;;;;;5.82;3.80;;;16.20;99.90;;;;;;5096669;28;20020;-74
2023/07/28 00:52:51;;;;;;;7.35;3.55;;;16.20;99.90;;;;;;5096026;28;20047;-76
2023/07/28 00:55:17;;;;;;;8.52;4.70;;;16.20;99.90;;;;;;5096364;28;20067;-75
2023/07/28 00:57:43;;;;;;;5.07;3.95;;;16.20;99.90;;;;;;5114867;28;20101;-76
2023/07/28 01:00:10;;;;;;;6.60;3.72;;;16.30;99.90;;;;;;5113567;28;20061;-75
2023/07/28 01:02:37;;;;;;;10.63;4.53;;;16.20;99.90;;;;;;5096125;28;20459;-76
2023/07/28 01:05:03;;;;;;;9.43;5.82;;;16.20;99.90;;;;;;5095809;28;20034;-74
2023/07/28 01:07:48;;;;;;;15.23;7.15;;;16.20;99.90;;;;;;5114416;28;20065;-74
2023/07/28 01:10:21;;;;;;;14.35;5.25;;;16.20;99.90;;;;;;5114565;28;20428;-75
2023/07/28 01:12:46;;;;;;;;;;;16.20;99.90;;;;;;5084084;28;20028;-76
2023/07/28 01:15:14;;;;;;;19.35;5.18;;;16.20;99.90;;;;;;5087404;28;20279;-76
2023/07/28 01:17:42;;;;;;;8.68;4.70;;;16.20;99.90;;;;;;5095751;28;20034;-76
2023/07/28 01:20:08;;;;;;;15.52;4.70;;;16.20;99.90;;;;;;5096100;28;20036;-75
2023/07/28 01:22:42;;;;;;;11.57;4.85;;;16.30;99.90;;;;;;5114324;28;20126;-76
2023/07/28 01:25:22;;;;;;;15.20;6.25;;;16.30;99.90;;;;;;5114084;28;20031;-75
2023/07/28 01:27:51;;;;;;;15.27;6.18;;;16.30;99.90;;;;;;5095962;28;20030;-76
2023/07/28 01:30:19;;;;;;;10.20;5.70;;;16.30;99.90;;;;;;5090649;28;20031;-76
2023/07/28 01:32:45;;;;;;;11.70;6.35;;;16.30;99.90;;;;;;5105555;28;20035;-75
2023/07/28 01:35:11;;;;;;;12.45;5.88;;;16.30;99.90;;;;;;5114144;28;20050;-76
2023/07/28 01:37:36;;;;;;;14.00;6.57;;;16.30;99.90;;;;;;5113884;28;20107;-76
2023/07/28 01:40:02;;;;;;;19.50;7.20;;;16.30;99.90;;;;;;5113966;28;20027;-75
2023/07/28 01:42:28;;;;;;;18.60;6.47;;;16.30;99.90;;;;;;5113664;28;20047;-76
2023/07/28 01:44:54;;;;;;;16.33;5.82;;;16.30;99.90;;;;;;5113933;28;20532;-76
2023/07/28 01:47:20;;;;;;;14.35;6.07;;;16.30;99.90;;;;;;5113824;28;20417;-75
2023/07/28 01:49:45;;;;;;;17.75;6.47;;;16.40;99.90;;;;;;5113756;28;20036;-76
2023/07/28 01:52:11;;;;;;;10.13;5.43;;;16.40;99.90;;;;;;5113681;28;20053;-76
2023/07/28 01:54:37;;;;;;;11.35;6.03;;;16.40;99.90;;;;;;5113490;28;20027;-75
2023/07/28 01:57:04;;;;;;;15.45;5.88;;;16.40;99.90;;;;;;5114065;28;20366;-76
2023/07/28 01:59:29;;;;;;;9.60;4.60;;;16.40;99.90;;;;;;5095229;28;20027;-76
2023/07/28 02:01:55;;;;;;;8.43;4.10;;;16.30;99.90;;;;;;5107817;28;20371;-76
2023/07/28 02:04:21;;;;;;;9.13;4.68;;;16.30;99.90;;;;;;5106329;28;20112;-76
2023/07/28 02:06:47;;;;;;;8.65;4.50;;;16.20;99.90;;;;;;5093993;28;20483;-76
2023/07/28 02:09:12;;;;;;;7.70;4.22;;;16.20;99.90;;;;;;5073099;28;20537;-75
2023/07/28 02:11:38;;;;;;;9.10;4.50;;;16.20;99.90;;;;;;5072444;28;20028;-75
2023/07/28 02:14:04;;;;;;;9.95;4.78;;;16.20;99.90;;;;;;5071964;28;20032;-75
2023/07/28 02:16:32;;;;;;;6.95;4.15;;;16.30;99.90;;;;;;5072929;28;20032;-75
2023/07/28 02:18:57;;;;;;;10.90;5.15;;;16.30;99.90;;;;;;5091827;28;20467;-76
2023/07/28 02:21:23;;;;;;;10.30;4.80;;;16.30;99.90;;;;;;5095244;28;20028;-75
2023/07/28 02:23:49;;;;;;;9.15;4.97;;;16.30;99.90;;;;;;5092869;28;20028;-77
2023/07/28 02:26:15;;;;;;;14.15;5.95;;;16.20;99.90;;;;;;5094552;28;20028;-76
2023/07/28 02:28:41;;;;;;;26.73;13.10;;;16.20;99.90;;;;;;5091914;28;20028;-76
2023/07/28 02:31:07;;;;;;;26.60;18.25;;;16.20;99.90;;;;;;5095373;28;20035;-76
2023/07/28 02:33:35;;;;;;;33.47;21.70;;;16.20;99.90;;;;;;5091818;28;20032;-76
2023/07/28 02:36:01;;;;;;;46.08;24.38;;;16.20;99.90;;;;;;5091106;28;20028;-76
2023/07/28 02:38:27;;;;;;;21.23;15.40;;;16.20;99.90;;;;;;5074438;28;20024;-75
2023/07/28 02:40:53;;;;;;;23.80;14.90;;;16.20;99.90;;;;;;5097372;28;20040;-76
2023/07/28 02:43:19;;;;;;;20.92;13.98;;;16.20;99.90;;;;;;5074347;28;20037;-76
2023/07/28 02:45:53;;;;;;;22.30;14.68;;;16.30;99.90;;;;;;5090810;28;20012;-75
2023/07/28 02:48:21;;;;;;;18.23;11.55;;;16.20;99.90;;;;;;5090943;28;20024;-76
2023/07/28 02:50:48;;;;;;;18.90;11.65;;;16.10;99.90;;;;;;5091002;28;20024;-76
2023/07/28 02:53:14;;;;;;;17.52;10.25;;;16.10;99.90;;;;;;5073207;28;20036;-76
2023/07/28 02:55:44;;;;;;;19.75;9.20;;;16.00;99.90;;;;;;5091134;28;20035;-76
2023/07/28 02:58:10;;;;;;;19.52;9.30;;;16.00;99.90;;;;;;5074423;28;20042;-76
2023/07/28 03:00:43;;;;;;;14.93;7.25;;;15.90;99.90;;;;;;5072636;28;20100;-75
2023/07/28 03:03:12;;;;;;;18.73;7.28;;;16.00;99.90;;;;;;5060723;28;20166;-75
2023/07/28 03:05:39;;;;;;;16.80;7.82;;;15.90;99.90;;;;;;5069374;28;20475;-76
2023/07/28 03:08:22;;;;;;;10.98;6.50;;;16.00;99.90;;;;;;5072475;28;20021;-76
2023/07/28 03:10:48;;;;;;;8.18;5.15;;;15.90;99.90;;;;;;5072633;28;20783;-75
2023/07/28 03:13:14;;;;;;;10.48;5.18;;;15.80;99.90;;;;;;5090543;28;20471;-76
2023/07/28 03:15:39;;;;;;;9.65;4.90;;;15.80;99.90;;;;;;5071371;28;20031;-76
2023/07/28 03:18:06;;;;;;;10.35;5.30;;;15.70;99.90;;;;;;5071669;28;20027;-75
2023/07/28 03:20:35;;;;;;;12.13;6.40;;;15.60;99.90;;;;;;5073855;28;20498;-75
2023/07/28 03:23:01;;;;;;;10.30;5.15;;;15.50;99.90;;;;;;5090912;28;20016;-76
2023/07/28 03:25:27;;;;;;;10.40;5.38;;;15.60;99.90;;;;;;5075655;28;20048;-77
2023/07/28 03:27:53;;;;;;;8.00;5.03;;;15.60;99.90;;;;;;5079859;28;20062;-74
2023/07/28 03:30:19;;;;;;;7.60;4.50;;;15.60;99.90;;;;;;5076053;28;20069;-75
2023/07/28 03:32:44;;;;;;;11.25;5.53;;;15.50;99.90;;;;;;5075338;28;20039;-75
2023/07/28 03:35:10;;;;;;;12.02;5.43;;;15.50;99.90;;;;;;5075297;28;20051;-76
2023/07/28 03:37:42;;;;;;;12.60;6.18;;;15.50;99.90;;;;;;5071923;28;20471;-76
2023/07/28 03:40:09;;;;;;;9.02;5.75;;;15.60;99.90;;;;;;5078356;28;20042;-76
2023/07/28 03:42:44;;;;;;;11.77;5.90;;;15.70;99.90;;;;;;5077402;28;20056;-74
2023/07/28 03:45:10;;;;;;;12.27;5.85;;;16.30;99.90;;;;;;5072875;28;20032;-75
2023/07/28 03:47:36;;;;;;;9.98;5.28;;;17.20;99.90;;;;;;5076199;28;20024;-75
2023/07/28 03:50:03;;;;;;;13.50;6.50;;;17.70;99.90;;;;;;5059508;28;20082;-76
2023/07/28 03:52:29;;;;;;;12.65;6.57;;;18.40;99.90;;;;;;5072928;28;20094;-76
2023/07/28 03:54:55;;;;;;;15.48;6.03;;;19.20;99.90;;;;;;5055601;28;20470;-77
2023/07/28 03:57:20;;;;;;;15.02;6.15;;;19.90;99.90;;;;;;5075407;28;20024;-75
2023/07/28 03:59:46;;;;;;;21.10;5.13;;;20.50;99.70;;;;;;5076740;28;20026;-76
2023/07/28 04:02:12;;;;;;;10.65;5.07;;;21.10;96.70;;;;;;5074170;28;20060;-77
2023/07/28 04:04:38;;;;;;;13.13;6.22;;;21.60;95.00;;;;;;5071955;28;20460;-77
2023/07/28 04:07:04;;;;;;;16.85;6.28;;;22.40;94.20;;;;;;5055830;28;20056;-77
2023/07/28 04:09:30;;;;;;;11.93;5.25;;;23.30;98.40;;;;;;5070305;28;20577;-77
2023/07/28 04:11:56;;;;;;;12.60;5.43;;;24.00;94.10;;;;;;5077170;28;20016;-78
2023/07/28 04:14:21;;;;;;;8.55;4.57;;;24.40;88.10;;;;;;5073637;28;20380;-78
2023/07/28 04:16:47;;;;;;;8.48;4.47;;;24.80;86.00;;;;;;5077460;28;20086;-77
2023/07/28 04:19:13;;;;;;;10.55;4.43;;;25.00;84.20;;;;;;5074462;28;20028;-76
2023/07/28 04:21:39;;;;;;;10.73;5.38;;;25.40;82.70;;;;;;5073278;28;20013;-75
2023/07/28 04:24:09;;;;;;;16.83;5.28;;;25.50;82.60;;;;;;5055813;28;20047;-76
2023/07/28 04:26:39;;;;;;;9.85;5.13;;;26.00;80.60;;;;;;5068411;28;20119;-77
2023/07/28 04:29:05;;;;;;;9.10;4.78;;;26.20;81.30;;;;;;5071965;28;20164;-76
2023/07/28 04:31:31;;;;;;;13.02;5.40;;;26.40;80.30;;;;;;5055300;28;20027;-76
2023/07/28 04:34:06;;;;;;;13.15;5.35;;;26.80;79.80;;;;;;5055179;28;20376;-76
2023/07/28 04:36:52;;;;;;;10.15;4.90;;;27.20;78.80;;;;;;5074967;28;20040;-76
2023/07/28 04:39:22;;;;;;;10.27;5.22;;;27.30;78.70;;;;;;5072984;28;20471;-77
2023/07/28 04:41:48;;;;;;;14.32;4.82;;;27.30;78.00;;;;;;5069185;28;20052;-77
2023/07/28 04:44:14;;;;;;;12.27;4.78;;;27.60;78.40;;;;;;5075317;28;20035;-77
2023/07/28 04:46:43;;;;;;;8.77;4.28;;;27.80;77.30;;;;;;5091023;28;20391;-78
2023/07/28 04:49:12;;;;;;;14.70;5.85;;;28.20;77.10;;;;;;5095229;28;20036;-78
2023/07/28 04:51:57;;;;;;;15.35;5.40;;;28.00;75.50;;;;;;5093132;28;20158;-77
2023/07/28 04:54:29;;;;;;;9.27;4.97;;;;;;;;;;5092710;28;20040;-75
2023/07/28 04:56:55;;;;;;;10.93;4.88;;;28.90;74.20;;;;;;5091590;28;20017;-79
2023/07/28 04:59:28;;;;;;;10.02;4.60;;;29.30;74.40;;;;;;5092637;28;20483;-78
2023/07/28 05:01:53;;;;;;;12.98;4.10;;;29.30;73.80;;;;;;5093089;28;20079;-79
2023/07/28 05:04:19;;;;;;;14.50;4.95;;;28.10;73.90;;;;;;5091153;28;20040;-77
2023/07/28 05:06:45;;;;;;;10.10;5.00;;;28.40;74.90;;;;;;5092770;28;20056;-79
2023/07/28 05:09:11;;;;;;;10.90;5.90;;;27.30;73.60;;;;;;5096893;28;20015;-78
2023/07/28 05:11:37;;;;;;;11.68;5.35;;;25.70;75.40;;;;;;5091649;28;20031;-77
2023/07/28 05:14:05;;;;;;;7.72;4.72;;;25.00;77.80;;;;;;5091133;28;20032;-74
2023/07/28 05:16:32;;;;;;;8.63;4.43;;;23.80;82.10;;;;;;5091258;28;20024;-79
2023/07/28 05:19:11;;;;;;;9.32;4.75;;;23.70;85.90;;;;;;5096625;28;20162;-78
2023/07/28 05:21:56;;;;;;;8.27;3.70;;;23.40;89.70;;;;;;5092355;28;20085;-75
2023/07/28 05:24:29;;;;;;;8.23;4.32;;;22.70;90.90;;;;;;5091239;28;20031;-78
2023/07/28 05:26:55;;;;;;;13.55;5.13;;;22.80;92.00;;;;;;5092448;28;20024;-77
2023/07/28 05:29:21;;;;;;;10.23;4.88;;;22.60;93.00;;;;;;5092146;28;20361;-78
2023/07/28 05:31:48;;;;;;;6.38;4.28;;;22.80;93.60;;;;;;5091504;28;20025;-76
2023/07/28 05:34:25;;;;;;;11.73;5.82;;;22.80;94.10;;;;;;5077278;28;20106;-77
2023/07/28 05:36:51;;;;;;;14.85;5.47;;;22.30;94.40;;;;;;5074247;28;20024;-78
2023/07/28 05:39:17;;;;;;;12.38;5.15;;;22.60;95.20;;;;;;5091975;28;20383;-77
2023/07/28 05:41:45;;;;;;;8.43;4.20;;;22.70;95.40;;;;;;5089957;28;20036;-77
2023/07/28 05:44:12;;;;;;;9.30;4.70;;;22.80;94.60;;;;;;5078604;28;20035;-74
2023/07/28 05:46:38;;;;;;;10.18;4.78;;;22.80;93.70;;;;;;5111143;28;20024;-77
2023/07/28 05:49:04;;;;;;;9.50;4.47;;;22.80;93.70;;;;;;5113820;28;20024;-77
2023/07/28 05:51:31;;;;;;;12.23;5.38;;;22.90;94.30;;;;;;5113814;28;20020;-77
2023/07/28 05:53:56;;;;;;;9.55;4.53;;;23.10;93.90;;;;;;5112532;28;20116;-76
2023/07/28 05:56:22;;;;;;;9.95;4.55;;;22.80;92.60;;;;;;5112119;28;20111;-77
2023/07/28 05:58:49;;;;;;;9.35;4.65;;;23.10;93.50;;;;;;5112595;28;20119;-77
2023/07/28 06:01:16;;;;;;;14.10;4.57;;;23.30;93.90;;;;;;5112650;28;20038;-78
2023/07/28 06:04:01;;;;;;;8.10;4.60;;;23.40;92.80;;;;;;5101440;28;20085;-75
2023/07/28 06:06:29;;;;;;;7.70;4.05;;;23.40;92.00;;;;;;5112464;28;20429;-75
2023/07/28 06:08:54;;;;;;;7.68;3.78;;;23.30;92.90;;;;;;5113360;28;20028;-77
2023/07/28 06:11:21;;;;;;;10.50;4.05;;;23.50;93.20;;;;;;5113454;28;20487;-79
2023/07/28 06:13:47;;;;;;;6.72;3.72;;;23.60;92.20;;;;;;5104961;28;20036;-78
2023/07/28 06:16:14;;;;;;;9.15;4.47;;;22.40;91.40;;;;;;5091998;28;20032;-79
2023/07/28 06:18:41;;;;;;;8.25;4.43;;;22.80;94.00;;;;;;5096712;28;20012;-77
2023/07/28 06:21:12;;;;;;;9.50;4.10;;;23.00;93.60;;;;;;5104603;28;20039;-73
2023/07/28 06:23:38;;;;;;;11.27;4.53;;;23.00;92.40;;;;;;5093211;28;20024;-74
2023/07/28 06:26:03;;;;;;;15.93;4.40;;;23.20;92.80;;;;;;5091045;28;20487;-78
2023/07/28 06:28:30;;;;;;;8.15;3.85;;;23.50;92.90;;;;;;5094327;28;20032;-77
2023/07/28 06:30:56;;;;;;;8.82;3.97;;;23.60;92.70;;;;;;5112904;28;20028;-77
2023/07/28 06:33:25;;;;;;;16.83;4.43;;;23.40;92.50;;;;;;5096118;28;20039;-77
2023/07/28 06:35:52;;;;;;;10.02;4.43;;;23.60;92.70;;;;;;5092373;28;20442;-77
2023/07/28 06:38:18;;;;;;;7.60;4.47;;;23.80;92.00;;;;;;5099619;28;20034;-74
2023/07/28 06:40:44;;;;;;;7.63;4.30;;;23.90;91.90;;;;;;5106636;28;20485;-78
2023/07/28 06:43:10;;;;;;;8.63;4.13;;;24.00;91.20;;;;;;5091209;28;20028;-74
2023/07/28 06:45:36;;;;;;;7.18;3.25;;;24.20;91.40;;;;;;5106307;28;20028;-77
2023/07/28 06:48:03;;;;;;;13.05;4.88;;;24.40;90.90;;;;;;5092408;28;20501;-77
2023/07/28 06:50:29;;;;;;;7.43;4.05;;;24.50;90.80;;;;;;5104555;28;20541;-77
2023/07/28 06:52:55;;;;;;;9.00;4.20;;;24.50;90.70;;;;;;5090972;28;20035;-76
2023/07/28 06:55:24;;;;;;;6.30;4.30;;;24.70;90.70;;;;;;5107409;28;20032;-77
2023/07/28 06:57:50;;;;;;;11.98;4.88;;;24.70;90.00;;;;;;5091658;28;20074;-78
2023/07/28 07:00:19;;;;;;;8.77;4.18;;;24.50;90.30;;;;;;5102436;28;20055;-77
2023/07/28 07:02:45;;;;;;;6.70;4.10;;;24.50;90.10;;;;;;5112336;28;20023;-78
2023/07/28 07:05:11;;;;;;;6.35;4.05;;;24.70;90.10;;;;;;5100640;27;20419;-77
2023/07/28 07:07:38;;;;;;;6.35;4.30;;;24.70;90.00;;;;;;5090790;28;20111;-78
2023/07/28 07:10:04;;;;;;;9.27;4.82;;;24.80;89.50;;;;;;5094840;28;20328;-77
2023/07/28 07:12:30;;;;;;;6.43;3.83;;;24.80;88.10;;;;;;5096615;28;20060;-75
2023/07/28 07:14:56;;;;;;;7.72;3.22;;;24.90;88.10;;;;;;5090577;28;20072;-78
2023/07/28 07:17:22;;;;;;;7.13;4.18;;;24.60;87.00;;;;;;5090855;28;20032;-73
2023/07/28 07:19:48;;;;;;;7.88;3.42;;;24.90;87.30;;;;;;5104172;28;20020;-78
2023/07/28 07:22:14;;;;;;;13.68;5.50;;;24.80;87.30;;;;;;5102271;28;20027;-77
2023/07/28 07:24:40;;;;;;;10.25;3.88;;;24.20;86.60;;;;;;5091969;28;20074;-77
2023/07/28 07:27:06;;;;;;;10.75;4.00;;;24.60;88.20;;;;;;5091783;28;20028;-73
2023/07/28 07:29:32;;;;;;;13.55;6.63;;;24.90;89.20;;;;;;5089929;28;20383;-74
2023/07/28 07:31:58;;;;;;;11.57;4.32;;;25.20;89.50;;;;;;5096961;28;20028;-77
2023/07/28 07:34:24;;;;;;;12.07;6.03;;;25.40;88.20;;;;;;5091909;28;20028;-76
2023/07/28 07:36:50;;;;;;;32.72;11.48;;;25.10;86.60;;;;;;5091633;28;20031;-73
2023/07/28 07:39:16;;;;;;;24.98;10.15;;;25.10;87.00;;;;;;5097190;28;20110;-76
2023/07/28 07:41:41;;;;;;;18.05;8.48;;;25.50;86.20;;;;;;5091318;28;20043;-76
2023/07/28 07:44:07;;;;;;;9.32;4.90;;;25.40;85.80;;;;;;5102543;28;20036;-77
2023/07/28 07:46:33;;;;;;;19.88;10.10;;;25.30;85.70;;;;;;5110816;28;20031;-78
2023/07/28 07:48:59;;;;;;;16.95;8.73;;;25.50;84.60;;;;;;5111906;28;20020;-74
2023/07/28 07:51:25;;;;;;;15.80;6.75;;;25.70;84.20;;;;;;5111880;28;20066;-77
2023/07/28 07:53:50;;;;;;;16.27;6.75;;;25.80;83.10;;;;;;5112102;28;20028;-78
2023/07/28 07:56:16;;;;;;;18.88;7.13;;;26.40;82.70;;;;;;5111868;28;20114;-78
2023/07/28 07:58:42;;;;;;;9.57;3.85;;;26.60;83.30;;;;;;5110897;28;20102;-77
2023/07/28 08:01:08;;;;;;;8.15;3.63;;;26.70;81.40;;;;;;5108703;28;20118;-76
2023/07/28 08:03:36;;;;;;;10.05;4.53;;;26.90;82.70;;;;;;5099438;28;20397;-74
2023/07/28 08:06:02;;;;;;;9.63;4.05;;;27.20;81.40;;;;;;5111902;28;20028;-78
2023/07/28 08:08:28;;;;;;;18.40;4.63;;;27.20;82.10;;;;;;5105132;28;20012;-76
2023/07/28 08:10:54;;;;;;;16.02;3.42;;;27.40;79.80;;;;;;5094878;28;20028;-78
2023/07/28 08:13:21;;;;;;;9.32;4.05;;;27.30;81.90;;;;;;5094915;28;20039;-78
2023/07/28 08:15:47;;;;;;;9.45;3.25;;;27.30;82.30;;;;;;5094927;28;20039;-76
2023/07/28 08:18:14;;;;;;;17.05;3.58;;;27.30;78.80;;;;;;5100109;28;20028;-77
2023/07/28 08:20:40;;;;;;;12.30;4.05;;;27.20;80.10;;;;;;5109589;28;20382;-78
2023/07/28 08:23:06;;;;;;;12.80;3.40;;;27.30;79.90;;;;;;5095292;28;20024;-78
2023/07/28 08:25:32;;;;;;;21.13;4.07;;;27.40;78.90;;;;;;5094651;28;20020;-77
2023/07/28 08:27:58;;;;;;;9.90;3.53;;;27.10;80.30;;;;;;5094940;28;20035;-76
2023/07/28 08:30:23;;;;;;;12.82;4.10;;;27.10;80.10;;;;;;5101231;28;20032;-74
2023/07/28 08:32:50;;;;;;;7.22;2.95;;;27.50;80.60;;;;;;5102098;28;20023;-78
2023/07/28 08:35:16;;;;;;;10.30;4.05;;;27.80;79.00;;;;;;5094809;28;20036;-73
2023/07/28 08:37:41;;;;;;;15.98;3.63;;;27.90;79.20;;;;;;5094930;28;20443;-79
2023/07/28 08:40:08;;;;;;;14.57;4.25;;;28.20;80.30;;;;;;5104383;28;21342;-78
2023/07/28 08:42:39;;;;;;;13.77;3.80;;;;;;;;;;5114666;28;20059;-79
2023/07/28 08:45:06;;;;;;;12.02;3.85;;;28.60;79.70;;;;;;5114465;28;20491;-78
2023/07/28 08:47:36;;;;;;;13.05;4.22;;;28.40;79.10;;;;;;5114592;28;20024;-78
2023/07/28 08:50:01;;;;;;;11.35;3.50;;;28.50;80.10;;;;;;5115295;28;20073;-78
2023/07/28 08:52:27;;;;;;;9.90;3.05;;;28.30;78.60;;;;;;5115036;28;20106;-79
2023/07/28 08:54:55;;;;;;;10.48;3.50;;;28.50;78.00;;;;;;5114959;28;20039;-79
2023/07/28 08:57:20;;;;;;;10.77;3.35;;;28.50;73.50;;;;;;5114742;28;20016;-79
2023/07/28 08:59:50;;;;;;;16.10;3.00;;;28.40;73.10;;;;;;5114829;28;20603;-78
2023/07/28 09:02:17;;;;;;;10.27;3.53;;;28.60;74.10;;;;;;5110876;28;20421;-76
2023/07/28 09:04:44;;;;;;;7.03;3.03;;;28.70;78.50;;;;;;5113773;27;20086;-78
2023/07/28 09:07:10;;;;;;;5.95;2.65;;;28.80;79.70;;;;;;5114823;28;20024;-78
2023/07/28 09:09:36;;;;;;;5.72;2.30;;;29.00;74.50;;;;;;5114569;28;20027;-78
2023/07/28 09:12:03;;;;;;;5.65;2.60;;;29.30;74.00;;;;;;5114617;28;20024;-78
2023/07/28 09:14:30;;;;;;;6.90;2.33;;;29.00;75.40;;;;;;5114243;27;20039;-80
2023/07/28 09:17:05;;;;;;;4.97;2.63;;;29.20;73.10;;;;;;5114587;28;20016;-75
2023/07/28 09:19:31;;;;;;;4.82;2.72;;;29.20;74.10;;;;;;5103900;28;20032;-80
2023/07/28 09:21:59;;;;;;;11.82;2.63;;;29.30;77.90;;;;;;5113606;28;20016;-79
2023/07/28 09:24:33;;;;;;;5.00;2.35;;;29.30;77.20;;;;;;5113020;28;20562;-73
2023/07/28 09:27:00;;;;;;;4.13;2.33;;;28.90;75.40;;;;;;5113815;27;20114;-75
2023/07/28 09:29:30;;;;;;;3.33;1.60;;;29.10;69.40;;;;;;5113419;28;20467;-79
2023/07/28 09:32:04;;;;;;;3.78;1.88;;;28.60;73.50;;;;;;5113983;28;20027;-75
2023/07/28 09:34:30;;;;;;;4.82;2.10;;;28.70;72.70;;;;;;5114383;28;20042;-79
2023/07/28 09:36:57;;;;;;;4.20;2.22;;;28.80;67.20;;;;;;5113820;28;20027;-78
2023/07/28 09:39:25;;;;;;;3.67;1.52;;;28.80;66.80;;;;;;5112996;28;20023;-80
2023/07/28 09:41:51;;;;;;;3.80;1.70;;;28.60;70.30;;;;;;5099698;28;20054;-76
2023/07/28 09:44:17;;;;;;;2.35;1.55;;;28.90;70.90;;;;;;5113833;28;20038;-76
2023/07/28 09:46:55;;;;;;;2.17;1.55;;;28.90;69.50;;;;;;5113910;28;20049;-82
2023/07/28 09:49:39;;;;;;;3.70;1.70;;;29.20;65.30;;;;;;5113307;28;20088;-76
2023/07/28 09:52:08;;;;;;;4.25;2.00;;;29.30;67.50;;;;;;5114164;28;20084;-75
2023/07/28 09:54:39;;;;;;;2.65;1.60;;;29.30;67.50;;;;;;5113571;28;20436;-82
2023/07/28 09:57:12;;;;;;;1.88;1.05;;;29.70;68.30;;;;;;5113533;28;20103;-75
2023/07/28 09:59:40;;;;;;;2.83;1.80;;;29.60;70.30;;;;;;5113299;28;20031;-79
2023/07/28 10:02:07;;;;;;;4.68;1.90;;;29.60;66.90;;;;;;5113063;28;20024;-82
2023/07/28 10:04:33;;;;;;;3.10;1.92;;;29.70;76.40;;;;;;5113409;28;20059;-82
2023/07/28 10:07:01;;;;;;;5.00;1.70;;;29.50;66.90;;;;;;5113276;28;20458;-76
2023/07/28 10:09:28;;;;;;;4.65;1.98;;;;;;;;;;5113500;28;20032;-81
2023/07/28 10:11:55;;;;;;;2.53;1.80;;;29.60;67.80;;;;;;5113236;28;20024;-75
2023/07/28 10:14:34;;;;;;;2.08;1.60;;;29.60;70.30;;;;;;5113154;28;20135;-79
2023/07/28 10:17:04;;;;;;;3.85;1.77;;;29.70;67.40;;;;;;5113186;28;20452;-81
2023/07/28 10:19:34;;;;;;;2.78;1.60;;;29.70;66.40;;;;;;5113172;28;20024;-81
2023/07/28 10:22:10;;;;;;;3.42;1.70;;;29.70;66.30;;;;;;5112688;28;20047;-80
2023/07/28 10:24:56;;;;;;;2.72;1.60;;;29.40;65.20;;;;;;5113294;28;20036;-81
2023/07/28 10:27:34;;;;;;;3.25;1.90;;;29.40;68.80;;;;;;5100913;28;20016;-82
2023/07/28 10:30:04;;;;;;;2.85;1.90;;;29.30;70.50;;;;;;5112902;28;20033;-82
2023/07/28 10:32:41;;;;;;;4.07;2.00;;;29.60;69.70;;;;;;5113443;28;20023;-83
2023/07/28 10:35:09;;;;;;;3.67;1.70;;;29.90;69.40;;;;;;5112860;28;20088;-82
2023/07/28 10:37:36;;;;;;;5.38;1.60;;;30.00;69.20;;;;;;5113515;28;20055;-81
2023/07/28 10:40:31;;;;;;;3.22;1.90;;;30.10;68.90;;;;;;5112801;28;20031;-80
2023/07/28 10:42:58;;;;;;;2.40;1.60;;;30.10;66.50;;;;;;5112709;28;20501;-81
2023/07/28 10:45:27;;;;;;;2.35;1.40;;;30.00;65.60;;;;;;5113126;28;20447;-79
2023/07/28 10:47:59;;;;;;;3.25;2.10;;;29.60;67.90;;;;;;5112556;28;20038;-80
2023/07/28 10:50:28;;;;;;;1.75;1.45;;;29.40;67.70;;;;;;5111104;28;20432;-77
2023/07/28 10:52:54;;;;;;;2.17;1.58;;;29.30;69.30;;;;;;5112547;28;20035;-77
2023/07/28 10:55:25;;;;;;;2.50;1.60;;;29.30;65.80;;;;;;5112419;28;20089;-76
2023/07/28 10:57:53;;;;;;;2.90;1.73;;;29.30;68.70;;;;;;5112710;28;20459;-79
2023/07/28 11:00:21;;;;;;;3.95;1.63;;;29.40;65.60;;;;;;5112421;28;20073;-82
2023/07/28 11:02:50;;;;;;;1.98;1.60;;;29.40;66.80;;;;;;5112945;28;20501;-82
2023/07/28 11:05:21;;;;;;;3.42;1.75;;;29.60;69.10;;;;;;5111855;28;20537;-84
2023/07/28 11:07:48;;;;;;;2.05;1.80;;;29.50;68.70;;;;;;5112118;28;20028;-83
2023/07/28 11:10:15;;;;;;;3.20;1.65;;;29.50;66.60;;;;;;5112441;28;20053;-82
2023/07/28 11:12:46;;;;;;;4.28;1.48;;;29.50;66.90;;;;;;5111929;28;20094;-82
2023/07/28 11:15:14;;;;;;;2.13;1.60;;;29.60;66.50;;;;;;5112230;28;20054;-83
2023/07/28 11:17:48;;;;;;;3.80;1.75;;;29.70;69.00;;;;;;5112496;28;20039;-82
2023/07/28 11:20:22;;;;;;;2.15;1.27;;;29.60;68.30;;;;;;5112042;28;20486;-79
2023/07/28 11:22:59;;;;;;;3.22;1.70;;;29.70;67.80;;;;;;5101717;28;20035;-82
2023/07/28 11:25:27;;;;;;;4.35;1.75;;;29.90;69.70;;;;;;5109322;28;20058;-82
2023/07/28 11:27:53;;;;;;;2.78;1.73;;;30.10;69.40;;;;;;5111342;28;20035;-81
2023/07/28 11:30:20;;;;;;;8.57;2.15;;;30.10;69.30;;;;;;5112484;28;20068;-83
2023/07/28 11:32:52;;;;;;;2.08;1.67;;;30.20;69.30;;;;;;5112473;28;20520;-82
2023/07/28 11:35:22;;;;;;;3.72;1.60;;;30.20;68.10;;;;;;5112379;28;20040;-82
2023/07/28 11:37:51;;;;;;;3.10;1.63;;;30.30;70.30;;;;;;5111902;28;20032;-80
2023/07/28 11:40:20;;;;;;;3.90;1.88;;;30.40;68.90;;;;;;5107386;28;20027;-82
2023/07/28 11:42:49;;;;;;;3.58;2.10;;;30.40;67.40;;;;;;5101442;28;20115;-82
2023/07/28 11:45:18;;;;;;;2.47;1.60;;;30.10;65.70;;;;;;5115195;28;20031;-76
2023/07/28 11:48:02;;;;;;;3.17;1.63;;;29.80;66.70;;;;;;5115302;28;20023;-81
2023/07/28 11:50:33;;;;;;;2.75;1.92;;;29.90;68.10;;;;;;5116055;28;20174;-81
2023/07/28 11:53:00;;;;;;;2.15;1.50;;;30.00;65.20;;;;;;5115613;28;20493;-74
2023/07/28 11:55:26;;;;;;;2.00;1.35;;;29.60;64.60;;;;;;5096270;28;20114;-82
2023/07/28 11:57:53;;;;;;;1.52;1.00;;;29.70;61.60;;;;;;5112084;28;20019;-81
2023/07/28 12:00:27;;;;;;;1.67;1.35;;;29.60;65.40;;;;;;5097247;28;20039;-81
2023/07/28 12:03:05;;;;;;;2.42;1.20;;;29.80;65.40;;;;;;5098578;28;20016;-81
2023/07/28 12:05:31;;;;;;;6.05;1.55;;;29.60;64.80;;;;;;5095615;28;20427;-80
2023/07/28 12:07:57;;;;;;;2.72;1.35;;;29.90;64.00;;;;;;5110497;28;20482;-77
2023/07/28 12:10:24;;;;;;;3.50;1.63;;;30.00;64.80;;;;;;5106951;28;20028;-77
2023/07/28 12:12:50;;;;;;;2.92;1.40;;;30.20;65.30;;;;;;5116271;28;20036;-79
2023/07/28 12:15:28;;;;;;;2.60;1.38;;;30.30;65.70;;;;;;5116909;28;20383;-80
2023/07/28 12:18:03;;;;;;;1.67;1.30;;;30.30;62.90;;;;;;5116851;28;20493;-78
2023/07/28 12:20:41;;;;;;;2.30;1.55;;;30.40;61.70;;;;;;5116300;28;20073;-79
2023/07/28 12:23:08;;;;;;;2.60;1.60;;;30.40;64.30;;;;;;5081337;28;20044;-79
2023/07/28 12:25:36;;;;;;;2.92;1.67;;;30.30;62.30;;;;;;5115610;28;20421;-78
2023/07/28 12:28:02;;;;;;;2.45;1.30;;;30.20;63.80;;;;;;5116320;27;20031;-77
2023/07/28 12:30:28;;;;;;;3.13;1.48;;;30.30;67.10;;;;;;5115957;28;20016;-78
2023/07/28 12:32:55;;;;;;;2.92;1.63;;;30.20;66.20;;;;;;5113283;28;20031;-79
2023/07/28 12:35:23;;;;;;;1.88;1.35;;;30.20;63.50;;;;;;5096011;28;20399;-78
2023/07/28 12:37:51;;;;;;;5.47;1.98;;;30.30;63.10;;;;;;5095397;28;20105;-79
2023/07/28 12:40:17;;;;;;;3.05;1.67;;;30.20;61.90;;;;;;5095501;28;20022;-74
2023/07/28 12:42:43;;;;;;;3.63;1.85;;;30.20;63.10;;;;;;5112783;28;20462;-78
2023/07/28 12:45:10;;;;;;;3.85;2.03;;;30.20;65.80;;;;;;5103018;28;20043;-80
2023/07/28 12:47:36;;;;;;;3.95;2.03;;;30.20;66.30;;;;;;5101233;28;20467;-77